Time;durP1;ratioP1;P1;durP2;ratioP2;P2;SDS_P1;SDS_P2;PMS_P1;PMS_P2;Temp;Humidity;BMP_temperature;BMP_pressure;BME280_temperature;BME280_humidity;BME280_pressure;Samples;Min_cycle;Max_cycle;Signal;HPM_P1;HPM_P2
2022/09/15 00:01:08;;;;;;;8.20;7.40;;;13.20;99.90;;;;;;4395199;27;10000414;-81
2022/09/15 00:03:34;;;;;;;10.45;7.10;;;13.20;99.90;;;;;;5111117;27;20050;-81
2022/09/15 00:06:00;;;;;;;8.18;7.35;;;13.20;99.90;;;;;;5113345;27;20027;-81
2022/09/15 00:08:25;;;;;;;9.48;7.65;;;13.20;99.90;;;;;;5106862;27;20035;-81
2022/09/15 00:11:01;;;;;;;8.43;6.93;;;13.10;99.90;;;;;;5119513;27;20425;-81
2022/09/15 00:13:26;;;;;;;7.60;6.45;;;13.10;99.90;;;;;;5123342;27;20051;-81
2022/09/15 00:15:52;;;;;;;7.82;6.75;;;13.00;99.90;;;;;;5115674;27;20046;-81
2022/09/15 00:18:18;;;;;;;7.45;6.43;;;13.00;99.90;;;;;;5110047;27;20026;-81
2022/09/15 00:20:44;;;;;;;6.68;6.00;;;13.00;99.90;;;;;;5126630;27;20032;-81
2022/09/15 00:23:12;;;;;;;6.72;6.03;;;12.90;99.90;;;;;;5118399;27;20379;-81
2022/09/15 00:25:43;;;;;;;6.95;6.25;;;12.90;99.90;;;;;;5113354;27;20111;-81
2022/09/15 00:28:09;;;;;;;7.80;6.80;;;12.90;99.90;;;;;;5119127;27;20062;-80
2022/09/15 00:30:50;;;;;;;8.63;7.07;;;12.90;99.90;;;;;;5137632;27;20475;-81
2022/09/15 00:33:17;;;;;;;11.57;8.77;;;12.90;99.90;;;;;;5116295;27;20023;-80
2022/09/15 00:35:45;;;;;;;10.32;8.20;;;12.90;99.90;;;;;;5117475;27;20026;-81
2022/09/15 00:38:12;;;;;;;8.80;7.78;;;12.90;99.90;;;;;;5131747;27;20049;-81
2022/09/15 00:40:56;;;;;;;8.48;7.10;;;12.90;99.90;;;;;;5131743;27;20488;-81
2022/09/15 00:43:47;;;;;;;9.18;8.00;;;12.90;99.90;;;;;;5133769;27;20109;-81
2022/09/15 00:46:14;;;;;;;9.98;8.10;;;12.90;99.90;;;;;;5123975;27;20073;-81
2022/09/15 00:49:06;;;;;;;10.82;8.50;;;12.80;99.90;;;;;;5134856;27;20127;-81
2022/09/15 00:51:54;;;;;;;9.38;7.95;;;12.80;99.90;;;;;;5139349;27;20038;-81
2022/09/15 00:54:29;;;;;;;10.00;8.90;;;12.80;99.90;;;;;;5121167;27;20082;-81
2022/09/15 00:56:59;;;;;;;10.10;8.85;;;12.80;99.90;;;;;;5122038;27;20465;-80
2022/09/15 00:59:28;;;;;;;9.77;8.13;;;12.80;99.90;;;;;;5102988;27;20039;-81
2022/09/15 01:02:14;;;;;;;12.27;9.52;;;12.80;99.90;;;;;;5121330;27;20088;-80
2022/09/15 01:04:40;;;;;;;10.70;8.55;;;12.70;99.90;;;;;;5127612;27;20027;-80
2022/09/15 01:07:09;;;;;;;13.32;10.00;;;12.80;99.90;;;;;;5132084;27;20030;-81
2022/09/15 01:09:50;;;;;;;10.98;8.85;;;12.70;99.90;;;;;;5129584;27;20031;-81
2022/09/15 01:12:16;;;;;;;11.75;10.10;;;12.70;99.90;;;;;;5128902;27;20023;-81
2022/09/15 01:14:42;;;;;;;12.00;9.20;;;12.70;99.90;;;;;;5122354;27;20539;-81
2022/09/15 01:17:33;;;;;;;14.15;11.40;;;12.70;99.90;;;;;;5122503;27;20016;-81
2022/09/15 01:19:59;;;;;;;12.27;10.00;;;12.60;99.90;;;;;;5133626;27;20026;-81
2022/09/15 01:22:47;;;;;;;14.32;10.50;;;12.60;99.90;;;;;;5135470;27;20184;-81
2022/09/15 01:25:26;;;;;;;11.27;9.75;;;12.60;99.90;;;;;;5124908;27;20031;-81
2022/09/15 01:28:23;;;;;;;14.13;11.43;;;12.60;99.90;;;;;;5126511;27;20034;-80
2022/09/15 01:31:00;;;;;;;19.48;14.73;;;12.60;99.90;;;;;;5112686;27;20393;-81
2022/09/15 01:33:51;;;;;;;21.42;15.13;;;12.50;99.90;;;;;;5112947;27;20023;-80
2022/09/15 01:36:43;;;;;;;17.38;14.32;;;12.60;99.90;;;;;;5114808;27;20027;-80
2022/09/15 01:39:19;;;;;;;20.17;13.73;;;12.70;99.90;;;;;;5131009;27;20092;-80
2022/09/15 01:41:50;;;;;;;17.67;13.73;;;12.70;99.90;;;;;;5138569;27;20047;-81
2022/09/15 01:44:26;;;;;;;24.60;17.73;;;12.70;99.90;;;;;;5121866;27;20031;-81
2022/09/15 01:46:57;;;;;;;20.08;14.70;;;12.70;99.90;;;;;;5120324;27;20090;-80
2022/09/15 01:49:27;;;;;;;22.08;15.52;;;12.70;99.90;;;;;;5121849;27;20652;-81
2022/09/15 01:51:53;;;;;;;21.45;15.90;;;12.70;99.90;;;;;;5126745;27;20035;-80
2022/09/15 01:54:23;;;;;;;19.90;14.10;;;12.80;99.90;;;;;;5107702;27;20020;-80
2022/09/15 01:56:48;;;;;;;16.65;13.68;;;12.80;99.90;;;;;;5113133;27;20461;-81
2022/09/15 01:59:15;;;;;;;21.35;15.90;;;12.80;99.90;;;;;;5123943;27;20279;-80
2022/09/15 02:01:53;;;;;;;24.77;17.17;;;12.80;99.90;;;;;;5118374;27;20027;-80
2022/09/15 02:04:35;;;;;;;22.17;16.05;;;12.90;99.90;;;;;;5127048;27;20027;-80
2022/09/15 02:07:25;;;;;;;25.67;16.73;;;12.90;99.90;;;;;;5098016;28;20598;-80
2022/09/15 02:10:12;;;;;;;20.20;14.80;;;13.00;99.90;;;;;;5114491;27;20028;-80
2022/09/15 02:12:42;;;;;;;19.77;14.82;;;13.10;99.90;;;;;;5106566;28;20020;-80
2022/09/15 02:15:15;;;;;;;25.83;16.52;;;13.10;99.90;;;;;;5114127;28;20278;-80
2022/09/15 02:17:49;;;;;;;23.70;15.70;;;13.10;99.90;;;;;;5127839;27;20073;-79
2022/09/15 02:20:24;;;;;;;21.55;14.27;;;13.10;99.90;;;;;;5118967;27;20024;-80
2022/09/15 02:22:56;;;;;;;21.33;14.43;;;13.10;99.90;;;;;;5118931;27;20483;-81
2022/09/15 02:25:28;;;;;;;17.77;13.30;;;13.20;99.90;;;;;;5116402;27;20031;-80
2022/09/15 02:27:59;;;;;;;17.52;12.50;;;13.10;99.90;;;;;;5122557;27;20498;-80
2022/09/15 02:30:28;;;;;;;19.17;13.02;;;13.10;99.90;;;;;;5119574;27;20027;-80
2022/09/15 02:33:01;;;;;;;22.15;14.52;;;13.20;99.90;;;;;;5130657;27;20391;-81
2022/09/15 02:35:30;;;;;;;21.77;15.02;;;13.20;99.90;;;;;;5108171;28;20080;-80
2022/09/15 02:37:57;;;;;;;19.65;14.50;;;13.20;99.90;;;;;;5112619;27;20027;-80
2022/09/15 02:40:22;;;;;;;17.73;13.60;;;13.30;99.90;;;;;;5132359;27;20056;-80
2022/09/15 02:42:59;;;;;;;20.92;14.52;;;13.30;99.90;;;;;;5140407;27;20019;-80
2022/09/15 02:45:25;;;;;;;20.50;14.63;;;13.30;99.90;;;;;;5142693;27;20033;-80
2022/09/15 02:47:51;;;;;;;21.85;14.38;;;13.30;99.90;;;;;;5125201;27;20491;-80
2022/09/15 02:50:17;;;;;;;19.98;14.65;;;13.30;99.90;;;;;;5144536;27;20066;-81
2022/09/15 02:52:43;;;;;;;18.58;14.07;;;13.30;99.90;;;;;;5124968;27;20375;-80
2022/09/15 02:55:10;;;;;;;21.65;14.93;;;13.30;99.90;;;;;;5122511;27;20016;-80
2022/09/15 02:57:35;;;;;;;20.10;15.07;;;13.30;99.90;;;;;;5124136;27;20027;-80
2022/09/15 03:00:12;;;;;;;22.20;15.40;;;13.30;99.90;;;;;;5131292;27;20024;-80
2022/09/15 03:02:41;;;;;;;21.85;14.80;;;13.30;99.90;;;;;;5119997;27;20105;-80
2022/09/15 03:05:08;;;;;;;21.17;14.90;;;13.30;99.90;;;;;;5120838;27;20027;-80
2022/09/15 03:07:35;;;;;;;28.20;16.50;;;13.20;99.90;;;;;;5125469;27;20048;-81
2022/09/15 03:10:01;;;;;;;24.48;15.40;;;13.20;99.90;;;;;;5121882;27;20030;-80
2022/09/15 03:12:26;;;;;;;23.35;16.13;;;13.20;99.90;;;;;;5127148;27;20028;-80
2022/09/15 03:14:52;;;;;;;20.77;14.60;;;13.20;99.90;;;;;;5144215;27;20079;-79
2022/09/15 03:17:18;;;;;;;17.42;13.00;;;13.20;99.90;;;;;;5138299;27;20030;-80
2022/09/15 03:19:44;;;;;;;16.77;12.85;;;13.20;99.90;;;;;;5134367;27;20022;-80
2022/09/15 03:22:09;;;;;;;20.17;14.02;;;13.20;99.90;;;;;;5139472;27;20083;-80
2022/09/15 03:24:36;;;;;;;18.10;14.13;;;13.10;99.90;;;;;;5135995;27;20665;-80
2022/09/15 03:27:02;;;;;;;28.50;16.42;;;13.00;99.90;;;;;;5128228;27;20628;-80
2022/09/15 03:29:28;;;;;;;28.98;19.13;;;13.00;99.90;;;;;;5131410;27;20496;-80
2022/09/15 03:31:53;;;;;;;25.92;18.13;;;13.00;99.90;;;;;;5124058;27;20023;-80
2022/09/15 03:34:19;;;;;;;26.67;17.05;;;13.10;99.90;;;;;;5121437;27;20023;-80
2022/09/15 03:36:45;;;;;;;21.65;16.13;;;13.10;99.90;;;;;;5144005;27;20034;-80
2022/09/15 03:39:11;;;;;;;25.02;17.00;;;13.10;99.90;;;;;;5124733;27;20023;-80
2022/09/15 03:41:37;;;;;;;20.83;15.40;;;13.10;99.90;;;;;;5122825;27;20050;-80
2022/09/15 03:44:02;;;;;;;22.42;15.90;;;13.10;99.90;;;;;;5127932;27;20122;-80
2022/09/15 03:46:28;;;;;;;19.88;15.02;;;13.00;99.90;;;;;;5113482;27;20024;-80
2022/09/15 03:48:53;;;;;;;25.25;16.67;;;13.00;99.90;;;;;;5134313;27;20046;-80
2022/09/15 03:51:19;;;;;;;21.35;15.82;;;13.00;99.90;;;;;;5137205;27;20353;-80
2022/09/15 03:53:45;;;;;;;22.30;16.00;;;12.90;99.90;;;;;;5119365;27;20019;-80
2022/09/15 03:56:25;;;;;;;22.23;16.35;;;12.90;99.90;;;;;;5117903;27;20104;-80
2022/09/15 03:58:51;;;;;;;22.67;15.50;;;12.90;99.90;;;;;;5122391;27;20047;-80
2022/09/15 04:01:19;;;;;;;22.80;16.20;;;12.80;99.90;;;;;;5131287;27;20028;-80
2022/09/15 04:03:46;;;;;;;26.30;17.33;;;12.80;99.90;;;;;;5123609;27;20480;-80
2022/09/15 04:06:12;;;;;;;22.90;16.02;;;12.80;99.90;;;;;;5132292;27;20046;-80
2022/09/15 04:08:38;;;;;;;22.50;15.15;;;12.70;99.90;;;;;;5139377;27;20099;-79
2022/09/15 04:11:06;;;;;;;22.80;15.68;;;12.70;99.90;;;;;;5120394;27;20467;-80
2022/09/15 04:13:32;;;;;;;23.40;16.10;;;12.70;99.90;;;;;;5138816;27;20107;-80
2022/09/15 04:16:06;;;;;;;26.55;16.20;;;12.70;99.90;;;;;;5132824;27;20419;-80
2022/09/15 04:18:32;;;;;;;26.25;17.65;;;12.70;99.90;;;;;;5139536;27;20547;-80
2022/09/15 04:20:59;;;;;;;23.75;16.80;;;12.70;99.90;;;;;;5111005;27;20368;-80
2022/09/15 04:23:25;;;;;;;22.70;15.73;;;12.60;99.90;;;;;;5129525;27;20470;-79
2022/09/15 04:26:22;;;;;;;21.73;15.95;;;12.60;99.90;;;;;;5127219;27;20065;-79
2022/09/15 04:28:48;;;;;;;20.35;15.05;;;12.60;99.90;;;;;;5103181;27;20061;-79
2022/09/15 04:31:15;;;;;;;19.58;14.13;;;12.60;99.90;;;;;;5135630;27;20050;-79
2022/09/15 04:33:42;;;;;;;19.77;14.00;;;12.50;99.90;;;;;;5133842;27;20049;-79
2022/09/15 04:36:11;;;;;;;21.90;14.65;;;12.50;99.90;;;;;;5131861;27;20115;-80
2022/09/15 04:38:37;;;;;;;21.50;14.65;;;12.50;99.90;;;;;;5118928;27;20394;-79
2022/09/15 04:41:04;;;;;;;21.25;13.57;;;12.50;99.90;;;;;;5113832;27;20045;-79
2022/09/15 04:43:30;;;;;;;19.38;13.65;;;12.40;99.90;;;;;;5121727;27;20032;-79
2022/09/15 04:45:56;;;;;;;19.30;14.35;;;12.40;99.90;;;;;;5129297;27;20023;-79
2022/09/15 04:48:23;;;;;;;19.80;14.13;;;12.40;99.90;;;;;;5132076;27;20043;-79
2022/09/15 04:50:49;;;;;;;20.23;15.07;;;12.40;99.90;;;;;;5118635;27;20532;-79
2022/09/15 04:53:15;;;;;;;20.45;14.43;;;;;;;;;;5121754;27;20023;-80
2022/09/15 04:55:41;;;;;;;21.42;14.93;;;12.20;99.90;;;;;;5128989;27;20019;-79
2022/09/15 04:58:07;;;;;;;24.20;16.80;;;12.30;99.90;;;;;;5107770;27;20035;-80
2022/09/15 05:00:41;;;;;;;32.70;20.83;;;12.30;99.90;;;;;;5100292;27;20707;-79
2022/09/15 05:03:07;;;;;;;26.50;18.05;;;12.40;99.90;;;;;;5123580;27;20039;-80
2022/09/15 05:05:33;;;;;;;29.27;18.98;;;12.30;99.90;;;;;;5116047;27;20038;-79
2022/09/15 05:07:59;;;;;;;32.10;20.00;;;12.30;99.90;;;;;;5113524;27;20027;-79
2022/09/15 05:10:26;;;;;;;33.88;20.98;;;12.30;99.90;;;;;;5109466;27;20102;-79
2022/09/15 05:12:52;;;;;;;28.27;19.10;;;12.40;99.90;;;;;;5116894;27;20045;-79
2022/09/15 05:15:18;;;;;;;27.45;17.70;;;12.40;99.90;;;;;;5116565;27;20080;-80
2022/09/15 05:17:44;;;;;;;31.17;19.75;;;12.50;99.90;;;;;;5125043;27;20106;-79
2022/09/15 05:20:09;;;;;;;29.00;19.08;;;12.50;99.90;;;;;;5131289;27;20122;-79
2022/09/15 05:22:35;;;;;;;24.23;17.50;;;12.50;99.90;;;;;;5137926;27;20028;-79
2022/09/15 05:25:00;;;;;;;24.02;16.30;;;12.60;99.90;;;;;;5124327;27;20041;-79
2022/09/15 05:27:29;;;;;;;23.65;16.25;;;12.60;99.90;;;;;;5122019;27;22172;-79
2022/09/15 05:29:54;;;;;;;23.23;15.93;;;12.60;99.90;;;;;;5126152;27;20470;-80
2022/09/15 05:32:20;;;;;;;25.75;17.30;;;12.70;99.90;;;;;;5116785;27;20030;-79
2022/09/15 05:34:45;;;;;;;23.95;16.75;;;12.70;99.90;;;;;;5128028;27;20019;-79
2022/09/15 05:37:11;;;;;;;25.73;17.75;;;12.70;99.90;;;;;;5116380;27;20224;-79
2022/09/15 05:39:38;;;;;;;24.70;16.08;;;12.70;99.90;;;;;;5121415;27;20089;-79
2022/09/15 05:42:04;;;;;;;23.85;16.35;;;12.80;99.90;;;;;;5113011;27;20034;-79
2022/09/15 05:44:30;;;;;;;23.67;15.90;;;12.70;99.90;;;;;;5118029;27;20179;-77
2022/09/15 05:46:56;;;;;;;22.60;16.25;;;12.80;99.90;;;;;;4389349;27;10001394;-78
2022/09/15 05:49:21;;;;;;;23.77;16.55;;;12.80;99.90;;;;;;5067168;28;21243;-78
2022/09/15 05:51:47;;;;;;;22.58;15.73;;;12.80;99.90;;;;;;5066880;28;20036;-79
2022/09/15 05:54:13;;;;;;;22.85;14.98;;;12.90;99.90;;;;;;5072620;28;20020;-78
2022/09/15 05:56:38;;;;;;;22.23;15.35;;;12.90;99.90;;;;;;5070135;28;20130;-77
2022/09/15 05:59:04;;;;;;;24.50;16.17;;;13.00;99.90;;;;;;5069660;28;20099;-78
2022/09/15 06:01:30;;;;;;;27.80;18.00;;;13.00;99.90;;;;;;5070300;28;20108;-78
2022/09/15 06:03:56;;;;;;;24.20;17.00;;;13.00;99.90;;;;;;5071027;28;20316;-77
2022/09/15 06:06:23;;;;;;;26.55;17.30;;;13.10;99.90;;;;;;5063475;28;20024;-78
2022/09/15 06:08:51;;;;;;;29.00;16.38;;;13.10;99.90;;;;;;5071669;28;20197;-78
2022/09/15 06:11:19;;;;;;;25.58;17.13;;;13.10;99.90;;;;;;5068892;28;20102;-78
2022/09/15 06:13:45;;;;;;;23.40;16.88;;;13.20;99.90;;;;;;5069509;28;20032;-78
2022/09/15 06:16:19;;;;;;;23.27;16.20;;;13.20;99.90;;;;;;5071608;28;20060;-78
2022/09/15 06:18:47;;;;;;;25.63;16.85;;;13.20;99.90;;;;;;5074179;28;20036;-78
2022/09/15 06:21:15;;;;;;;26.30;17.27;;;13.30;99.90;;;;;;5117776;27;20034;-77
2022/09/15 06:23:42;;;;;;;25.35;16.13;;;13.30;99.90;;;;;;5131157;27;20023;-86
2022/09/15 06:26:13;;;;;;;25.77;17.55;;;13.30;99.90;;;;;;5120766;27;20537;-80
2022/09/15 06:28:41;;;;;;;29.67;17.85;;;13.30;99.90;;;;;;5128616;27;20022;-85
2022/09/15 06:31:11;;;;;;;30.58;18.55;;;13.40;99.90;;;;;;5125273;27;20059;-86
2022/09/15 06:33:41;;;;;;;28.45;18.00;;;13.50;99.90;;;;;;5122647;27;20582;-82
2022/09/15 06:36:08;;;;;;;28.33;18.65;;;13.50;99.90;;;;;;5117869;27;20039;-83
2022/09/15 06:38:34;;;;;;;27.48;18.88;;;13.60;99.90;;;;;;5127640;27;20057;-84
2022/09/15 06:41:00;;;;;;;25.60;17.95;;;13.60;99.90;;;;;;5135119;27;20503;-80
2022/09/15 06:43:25;;;;;;;24.75;18.05;;;13.60;99.90;;;;;;5114807;27;20027;-85
2022/09/15 06:45:51;;;;;;;29.33;18.73;;;13.60;99.90;;;;;;5133613;27;20092;-86
2022/09/15 06:48:17;;;;;;;25.00;16.05;;;13.70;99.90;;;;;;5117339;27;20498;-85
2022/09/15 06:50:43;;;;;;;30.80;18.52;;;13.70;99.90;;;;;;5124464;27;20023;-89
2022/09/15 06:53:09;;;;;;;22.25;16.75;;;13.80;99.90;;;;;;5118482;27;20031;-85
2022/09/15 06:55:35;;;;;;;25.20;18.40;;;13.80;99.90;;;;;;5116013;27;20200;-82
2022/09/15 06:58:00;;;;;;;32.20;18.42;;;13.90;99.90;;;;;;5129751;27;20027;-79
2022/09/15 07:00:27;;;;;;;29.88;17.48;;;13.90;99.90;;;;;;5124875;27;20445;-80
2022/09/15 07:02:53;;;;;;;24.83;16.83;;;13.90;99.90;;;;;;5124148;27;20080;-78
2022/09/15 07:05:19;;;;;;;27.17;18.52;;;13.90;99.90;;;;;;5120379;27;20023;-79
2022/09/15 07:07:45;;;;;;;26.23;16.70;;;14.00;99.90;;;;;;5125455;27;20483;-80
2022/09/15 07:10:11;;;;;;;24.88;16.27;;;14.00;99.90;;;;;;5122551;27;20027;-78
2022/09/15 07:12:36;;;;;;;24.30;16.77;;;14.00;99.90;;;;;;5131791;27;20083;-79
2022/09/15 07:15:02;;;;;;;27.83;16.77;;;14.00;99.90;;;;;;5133770;27;20118;-81
2022/09/15 07:17:28;;;;;;;27.08;16.45;;;14.10;99.90;;;;;;5128784;27;20207;-77
2022/09/15 07:19:53;;;;;;;24.00;15.68;;;14.20;99.90;;;;;;5138736;27;20037;-77
2022/09/15 07:22:19;;;;;;;25.13;15.23;;;14.20;99.90;;;;;;5138739;27;20035;-77
2022/09/15 07:24:45;;;;;;;21.58;15.00;;;14.30;99.90;;;;;;5134103;27;20079;-80
2022/09/15 07:27:11;;;;;;;25.65;15.45;;;14.30;99.90;;;;;;5114735;27;20557;-79
2022/09/15 07:29:37;;;;;;;25.48;16.85;;;14.30;99.90;;;;;;5094681;27;20023;-79
2022/09/15 07:32:03;;;;;;;23.73;16.27;;;14.30;99.90;;;;;;5136229;27;20110;-80
2022/09/15 07:34:29;;;;;;;25.60;16.55;;;14.40;99.90;;;;;;5126026;27;20130;-78
2022/09/15 07:36:54;;;;;;;25.50;16.77;;;14.40;99.90;;;;;;5128032;27;20037;-79
2022/09/15 07:39:20;;;;;;;23.73;16.35;;;14.50;99.90;;;;;;5129195;27;20031;-79
2022/09/15 07:41:46;;;;;;;24.73;14.73;;;14.60;99.90;;;;;;5126856;27;20043;-79
2022/09/15 07:44:12;;;;;;;25.90;16.15;;;14.60;99.90;;;;;;5132462;27;20028;-80
2022/09/15 07:46:38;;;;;;;22.90;14.68;;;14.70;99.90;;;;;;5123585;27;20075;-77
2022/09/15 07:49:05;;;;;;;21.25;15.15;;;14.80;99.90;;;;;;5135609;27;20082;-79
2022/09/15 07:51:31;;;;;;;27.75;14.55;;;14.90;99.90;;;;;;5132023;27;20038;-79
2022/09/15 07:53:56;;;;;;;24.77;14.07;;;14.90;99.90;;;;;;5126426;27;20027;-77
2022/09/15 07:56:22;;;;;;;23.83;15.05;;;15.00;99.90;;;;;;5112645;27;20033;-82
2022/09/15 07:58:48;;;;;;;24.05;14.43;;;15.00;99.90;;;;;;5121706;27;20212;-79
2022/09/15 08:01:15;;;;;;;27.52;14.32;;;15.10;99.90;;;;;;5117791;27;20038;-78
2022/09/15 08:03:47;;;;;;;20.33;14.55;;;15.10;99.90;;;;;;5118397;27;20635;-80
2022/09/15 08:06:14;;;;;;;26.17;13.93;;;15.10;99.90;;;;;;5128646;27;20043;-76
2022/09/15 08:08:42;;;;;;;21.92;13.55;;;15.20;99.90;;;;;;5135685;27;20496;-77
2022/09/15 08:11:10;;;;;;;19.23;11.90;;;15.30;99.90;;;;;;5122050;27;20037;-77
2022/09/15 08:13:36;;;;;;;21.90;11.90;;;15.40;99.90;;;;;;5120724;27;20714;-77
2022/09/15 08:16:22;;;;;;;21.92;11.85;;;15.50;99.90;;;;;;5124391;27;20019;-77
2022/09/15 08:18:48;;;;;;;16.20;10.77;;;15.60;99.90;;;;;;5115486;27;20046;-77
2022/09/15 08:21:18;;;;;;;18.83;11.15;;;15.60;99.90;;;;;;5125161;27;20023;-78
2022/09/15 08:23:44;;;;;;;15.00;11.45;;;15.60;99.90;;;;;;5118674;27;20065;-77
2022/09/15 08:26:11;;;;;;;14.68;9.98;;;15.60;99.90;;;;;;5111356;27;20031;-81
2022/09/15 08:28:37;;;;;;;14.90;10.57;;;15.60;99.90;;;;;;5132003;27;20743;-77
2022/09/15 08:31:05;;;;;;;19.30;10.27;;;15.60;99.90;;;;;;5132310;27;20023;-77
2022/09/15 08:33:31;;;;;;;15.95;10.15;;;15.60;99.90;;;;;;5122222;27;20023;-77
2022/09/15 08:36:03;;;;;;;15.15;10.02;;;15.60;99.90;;;;;;5110351;27;20474;-76
2022/09/15 08:38:29;;;;;;;14.68;10.00;;;15.60;99.90;;;;;;5124139;27;20092;-78
2022/09/15 08:41:05;;;;;;;16.45;9.85;;;15.60;99.90;;;;;;5118198;27;20039;-80
2022/09/15 08:43:56;;;;;;;14.98;9.63;;;15.70;99.90;;;;;;5124630;27;20035;-80
2022/09/15 08:46:32;;;;;;;13.63;9.50;;;16.00;99.90;;;;;;5109437;27;20070;-79
2022/09/15 08:49:15;;;;;;;14.25;9.20;;;16.30;99.90;;;;;;5128320;27;20142;-80
2022/09/15 08:51:46;;;;;;;13.48;8.90;;;16.50;99.90;;;;;;5118007;27;20206;-79
2022/09/15 08:54:22;;;;;;;12.95;8.55;;;16.50;99.90;;;;;;5113897;27;20030;-80
2022/09/15 08:56:48;;;;;;;12.00;8.73;;;16.50;99.90;;;;;;5114559;27;20030;-80
2022/09/15 08:59:17;;;;;;;21.67;9.90;;;16.50;99.90;;;;;;5125998;27;20026;-80
2022/09/15 09:02:11;;;;;;;13.82;8.38;;;16.50;99.90;;;;;;5134077;27;20026;-80
2022/09/15 09:04:55;;;;;;;12.52;8.50;;;16.40;99.90;;;;;;5078550;27;20593;-81
2022/09/15 09:07:21;;;;;;;10.15;8.45;;;16.20;99.90;;;;;;5125842;27;20023;-81
2022/09/15 09:10:11;;;;;;;11.60;8.02;;;16.10;99.90;;;;;;5116334;27;20034;-79
2022/09/15 09:12:40;;;;;;;14.20;8.23;;;15.90;99.90;;;;;;5133032;27;20090;-80
2022/09/15 09:15:39;;;;;;;11.43;7.57;;;15.80;99.90;;;;;;5112538;27;20248;-77
2022/09/15 09:18:29;;;;;;;12.50;8.75;;;15.70;99.90;;;;;;5109944;27;20145;-79
2022/09/15 09:21:10;;;;;;;11.95;9.10;;;15.60;99.90;;;;;;5124362;27;20023;-78
2022/09/15 09:23:45;;;;;;;14.45;8.90;;;15.50;99.90;;;;;;5120321;27;20034;-77
2022/09/15 09:26:12;;;;;;;13.35;8.85;;;15.40;99.90;;;;;;5113490;27;20130;-79
2022/09/15 09:28:53;;;;;;;15.98;9.60;;;15.40;99.90;;;;;;5118696;27;20115;-79
2022/09/15 09:31:21;;;;;;;13.35;8.45;;;15.30;99.90;;;;;;5130498;27;20030;-79
2022/09/15 09:34:15;;;;;;;12.20;9.18;;;15.40;99.90;;;;;;5128839;27;20101;-77
2022/09/15 09:36:41;;;;;;;;;;;15.40;99.90;;;;;;5116436;27;20027;-77
2022/09/15 09:39:12;;;;;;;14.15;9.50;;;15.40;99.90;;;;;;5125046;27;19936;-80
2022/09/15 09:41:40;;;;;;;12.57;9.15;;;15.50;99.90;;;;;;5115999;27;20074;-77
2022/09/15 09:44:11;;;;;;;10.27;8.32;;;15.50;99.90;;;;;;5126365;27;20035;-79
2022/09/15 09:46:37;;;;;;;11.18;8.55;;;15.60;99.90;;;;;;5112666;27;20042;-79
2022/09/15 09:49:26;;;;;;;9.80;7.32;;;15.70;99.90;;;;;;5122698;27;20027;-78
2022/09/15 09:51:52;;;;;;;12.90;7.38;;;15.90;99.90;;;;;;5109086;27;20550;-80
2022/09/15 09:54:20;;;;;;;9.10;7.20;;;16.10;99.90;;;;;;5116899;27;20059;-76
2022/09/15 09:56:48;;;;;;;11.05;7.25;;;16.20;99.90;;;;;;5131581;27;20674;-78
2022/09/15 09:59:34;;;;;;;9.27;6.30;;;16.30;99.90;;;;;;5126362;27;20035;-78
2022/09/15 10:02:20;;;;;;;8.95;5.82;;;16.50;99.90;;;;;;5120743;27;20031;-78
2022/09/15 10:05:08;;;;;;;10.30;5.60;;;16.50;99.90;;;;;;5114780;27;20043;-78
2022/09/15 10:07:40;;;;;;;10.68;5.70;;;16.50;99.90;;;;;;5118203;27;20022;-78
2022/09/15 10:10:17;;;;;;;12.35;5.03;;;16.60;99.90;;;;;;5114549;27;20031;-78
2022/09/15 10:12:42;;;;;;;11.27;4.90;;;16.70;99.90;;;;;;5116575;27;20019;-77
2022/09/15 10:15:25;;;;;;;8.57;4.10;;;16.90;99.90;;;;;;5121991;27;20033;-76
2022/09/15 10:17:51;;;;;;;8.07;3.92;;;17.00;99.90;;;;;;5113849;27;20087;-77
2022/09/15 10:20:34;;;;;;;5.60;3.70;;;17.00;99.90;;;;;;5127852;27;20461;-79
2022/09/15 10:23:20;;;;;;;8.52;3.47;;;17.10;99.90;;;;;;5096338;28;20115;-79
2022/09/15 10:25:46;;;;;;;6.07;3.03;;;17.20;99.90;;;;;;5120226;27;20034;-78
2022/09/15 10:28:24;;;;;;;6.95;2.97;;;17.30;99.90;;;;;;5133440;27;20038;-79
2022/09/15 10:31:12;;;;;;;6.90;2.95;;;17.40;99.90;;;;;;5111798;27;20036;-78
2022/09/15 10:33:44;;;;;;;6.07;2.40;;;17.50;99.90;;;;;;5111523;27;20737;-82
2022/09/15 10:36:28;;;;;;;11.88;2.05;;;17.40;99.90;;;;;;5122309;27;20027;-77
2022/09/15 10:39:23;;;;;;;12.05;2.00;;;17.40;99.90;;;;;;5124339;27;20623;-77
2022/09/15 10:42:05;;;;;;;4.97;1.25;;;17.50;99.90;;;;;;5089320;28;20027;-79
2022/09/15 10:45:02;;;;;;;5.35;1.00;;;17.50;99.90;;;;;;5084648;28;20023;-79
2022/09/15 10:47:31;;;;;;;4.07;1.10;;;17.30;99.90;;;;;;5082387;28;20044;-77
2022/09/15 10:50:37;;;;;;;4.07;1.02;;;17.20;99.90;;;;;;5088051;28;20093;-77
2022/09/15 10:53:15;;;;;;;4.93;1.20;;;17.20;99.90;;;;;;5062712;28;20090;-77
2022/09/15 10:55:53;;;;;;;8.50;1.20;;;17.30;99.90;;;;;;5086799;28;20024;-78
2022/09/15 10:58:27;;;;;;;4.65;0.82;;;17.30;99.90;;;;;;5088221;28;20165;-77
2022/09/15 11:00:56;;;;;;;4.65;0.82;;;17.30;99.90;;;;;;5088157;28;20093;-79
2022/09/15 11:03:51;;;;;;;4.30;0.85;;;17.30;99.90;;;;;;5099119;28;20035;-78
2022/09/15 11:06:54;;;;;;;5.07;1.10;;;17.40;99.90;;;;;;5090481;28;20257;-81
2022/09/15 11:09:35;;;;;;;6.30;0.80;;;17.50;99.90;;;;;;5093650;28;20042;-80
2022/09/15 11:12:15;;;;;;;3.65;0.80;;;17.60;99.90;;;;;;5093057;28;20055;-81
2022/09/15 11:15:04;;;;;;;2.72;0.63;;;17.70;99.90;;;;;;5087580;28;20020;-81
2022/09/15 11:17:35;;;;;;;3.72;0.70;;;18.00;99.90;;;;;;5095179;28;20440;-80
2022/09/15 11:20:21;;;;;;;3.25;0.70;;;18.30;99.90;;;;;;5088621;28;20032;-81
2022/09/15 11:23:14;;;;;;;3.65;0.80;;;18.70;99.90;;;;;;5072513;28;20036;-80
2022/09/15 11:25:45;;;;;;;2.42;0.90;;;18.90;99.90;;;;;;5081890;28;20268;-80
2022/09/15 11:28:29;;;;;;;6.40;0.93;;;18.90;99.90;;;;;;5093062;28;20404;-77
2022/09/15 11:31:04;;;;;;;5.57;0.75;;;18.80;99.90;;;;;;5089115;28;20027;-77
2022/09/15 11:33:41;;;;;;;7.53;0.80;;;18.70;99.90;;;;;;5088778;28;20035;-78
2022/09/15 11:36:27;;;;;;;3.47;0.82;;;18.40;99.90;;;;;;5088242;28;20115;-76
2022/09/15 11:39:15;;;;;;;3.30;0.70;;;18.30;99.90;;;;;;5091338;28;20097;-77
2022/09/15 11:41:49;;;;;;;2.78;0.80;;;18.30;99.90;;;;;;5114378;27;20039;-78
2022/09/15 11:44:31;;;;;;;5.15;0.85;;;18.50;99.90;;;;;;5133123;27;20023;-79
2022/09/15 11:47:24;;;;;;;3.58;0.70;;;18.70;99.90;;;;;;5116637;27;20319;-78
2022/09/15 11:50:14;;;;;;;4.22;0.70;;;18.80;99.90;;;;;;5126430;27;20160;-79
2022/09/15 11:53:15;;;;;;;9.95;1.30;;;18.80;99.90;;;;;;5126153;27;20390;-78
2022/09/15 11:55:59;;;;;;;4.45;1.00;;;18.80;99.90;;;;;;5127964;27;20058;-78
2022/09/15 11:58:56;;;;;;;3.83;0.88;;;18.70;99.90;;;;;;5121968;27;20023;-77
2022/09/15 12:01:33;;;;;;;3.40;0.63;;;18.60;99.90;;;;;;5056282;27;20197;-81
2022/09/15 12:04:04;;;;;;;4.43;0.60;;;18.40;99.90;;;;;;5132011;27;20039;-78
2022/09/15 12:06:52;;;;;;;2.63;0.60;;;18.30;99.90;;;;;;5125370;27;20050;-84
2022/09/15 12:09:20;;;;;;;4.07;0.60;;;18.20;99.90;;;;;;5130574;27;20651;-78
2022/09/15 12:11:48;;;;;;;3.05;0.60;;;18.00;99.90;;;;;;5130618;27;20059;-82
2022/09/15 12:14:21;;;;;;;3.53;0.60;;;17.80;99.90;;;;;;5129540;27;20061;-80
2022/09/15 12:16:47;;;;;;;2.08;0.50;;;17.70;99.90;;;;;;5112922;27;20073;-84
2022/09/15 12:19:32;;;;;;;1.80;0.60;;;17.50;99.90;;;;;;5135633;27;20617;-85
2022/09/15 12:22:07;;;;;;;2.80;0.60;;;17.40;99.90;;;;;;5132121;27;20027;-83
2022/09/15 12:24:44;;;;;;;2.80;0.60;;;17.30;99.90;;;;;;5128809;27;20557;-78
2022/09/15 12:27:18;;;;;;;3.88;0.57;;;17.40;99.90;;;;;;5128872;27;20054;-87
2022/09/15 12:29:50;;;;;;;2.83;0.65;;;17.40;99.90;;;;;;5114555;27;20015;-82
2022/09/15 12:32:15;;;;;;;3.80;0.77;;;17.60;99.90;;;;;;5120736;27;20023;-83
2022/09/15 12:34:55;;;;;;;2.72;0.75;;;17.70;99.90;;;;;;5117239;27;20087;-79
2022/09/15 12:37:21;;;;;;;8.07;0.70;;;17.80;99.90;;;;;;5124766;27;20058;-81
2022/09/15 12:39:47;;;;;;;3.50;0.80;;;17.80;99.90;;;;;;5113451;27;20056;-84
2022/09/15 12:42:19;;;;;;;4.10;0.60;;;17.80;99.90;;;;;;5099403;27;20126;-84
2022/09/15 12:44:50;;;;;;;4.35;0.90;;;17.80;99.90;;;;;;5103833;27;20035;-82
2022/09/15 12:47:30;;;;;;;7.78;0.90;;;17.70;99.90;;;;;;5097697;27;20031;-80
2022/09/15 12:50:18;;;;;;;5.10;0.90;;;17.70;99.90;;;;;;5107576;27;20019;-81
2022/09/15 12:52:59;;;;;;;3.17;0.55;;;17.60;99.90;;;;;;5102663;27;20039;-81
2022/09/15 12:55:36;;;;;;;2.33;0.73;;;17.40;99.90;;;;;;5104726;27;20030;-85
2022/09/15 12:58:14;;;;;;;4.97;0.70;;;17.40;99.90;;;;;;5093445;27;20047;-85